createdAt,value
2022-11-26T00:04:23.398Z,6
2022-11-26T00:09:29.236Z,6
2022-11-26T00:19:42.389Z,6.1
2022-11-26T00:24:48.973Z,6.1
2022-11-26T00:29:55.534Z,6.2
2022-11-26T00:35:02.166Z,6.2
2022-11-26T00:40:08.697Z,6.2
2022-11-26T00:45:15.240Z,6.2
2022-11-26T00:50:21.838Z,6.3
2022-11-26T00:55:28.381Z,6.3
2022-11-26T01:00:34.959Z,6.3
2022-11-26T01:05:41.520Z,6.3
2022-11-26T01:10:48.095Z,6.4
2022-11-26T01:26:07.810Z,6.4
2022-11-26T01:31:14.378Z,6.4
2022-11-26T01:36:20.945Z,6.5
2022-11-26T01:41:26.825Z,6.5
2022-11-26T01:46:33.404Z,6.5
2022-11-26T01:51:39.984Z,6.6
2022-11-26T01:56:46.552Z,6.6
2022-11-26T02:01:53.135Z,6.6
2022-11-26T02:06:59.690Z,6.6
2022-11-26T02:12:06.284Z,6.6
2022-11-26T02:17:12.828Z,6.7
2022-11-26T02:22:19.402Z,6.6
2022-11-26T02:27:25.232Z,6.6
2022-11-26T02:37:38.376Z,6.6
2022-11-26T02:42:44.953Z,6.6
2022-11-26T02:47:51.514Z,6.5
2022-11-26T02:52:58.122Z,6.5
2022-11-26T02:58:04.669Z,6.5
2022-11-26T03:03:11.233Z,6.5
2022-11-26T03:08:17.798Z,6.6
2022-11-26T03:13:24.374Z,6.6
2022-11-26T03:18:30.942Z,6.6
2022-11-26T03:23:37.513Z,6.6
2022-11-26T03:28:44.089Z,6.6
2022-11-26T03:33:49.983Z,6.6
2022-11-26T03:38:56.549Z,6.7
2022-11-26T03:44:03.133Z,6.7
2022-11-26T03:49:09.681Z,6.7
2022-11-26T03:54:16.265Z,6.7
2022-11-26T03:59:22.819Z,6.7
2022-11-26T04:04:29.392Z,6.6
2022-11-26T04:09:35.959Z,6.6
2022-11-26T04:14:42.558Z,6.6
2022-11-26T04:19:48.385Z,6.6
2022-11-26T04:24:54.955Z,6.5
2022-11-26T04:30:01.534Z,6.5
2022-11-26T04:35:08.113Z,6.5
2022-11-26T04:40:14.668Z,6.5
2022-11-26T04:45:21.217Z,6.5
2022-11-26T04:50:27.817Z,6.5
2022-11-26T04:55:34.373Z,6.5
2022-11-26T05:00:40.939Z,6.5
2022-11-26T05:10:54.080Z,6.5
2022-11-26T05:16:00.655Z,6.5
2022-11-26T05:21:07.290Z,6.5
2022-11-26T05:26:13.776Z,6.5
2022-11-26T05:31:19.639Z,6.4
2022-11-26T05:36:26.211Z,6.4
2022-11-26T05:41:32.766Z,6.4
2022-11-26T05:46:39.357Z,6.4
2022-11-26T07:54:23.598Z,6.2
2022-11-26T07:59:30.221Z,6.2
2022-11-26T08:04:36.785Z,6.2
2022-11-26T08:09:43.405Z,6.3
2022-11-26T08:14:50.042Z,6.2
2022-11-26T08:19:56.505Z,6.3
2022-11-26T08:25:03.067Z,6.3
2022-11-26T08:30:09.722Z,6.3
2022-11-26T08:35:16.370Z,6.3
2022-11-26T08:40:23.535Z,6.4
2022-11-26T08:45:30.642Z,6.4
2022-11-26T08:50:37.790Z,6.4
2022-11-26T08:55:44.957Z,6.3
2022-11-26T09:00:51.727Z,6.3
2022-11-26T09:05:58.918Z,6.4
2022-11-26T09:11:06.091Z,6.4
2022-11-26T09:16:13.267Z,6.4
2022-11-26T09:21:20.615Z,6.4
2022-11-26T09:26:27.660Z,6.4
2022-11-26T09:31:34.851Z,6.4
2022-11-26T09:36:42.079Z,6.4
2022-11-26T09:41:49.387Z,6.4
2022-11-26T09:46:56.525Z,6.4
2022-11-26T09:52:03.718Z,6.3
2022-11-26T09:57:10.944Z,6.3
2022-11-26T10:02:17.948Z,6.3
2022-11-26T10:07:24.750Z,6.3
2022-11-26T10:12:32.053Z,6.2
2022-11-26T10:17:39.260Z,6.3
2022-11-26T10:22:46.484Z,6.4
2022-11-26T10:27:53.625Z,6.4
2022-11-26T10:33:00.782Z,6.4
2022-11-26T10:38:07.974Z,6.5
2022-11-26T10:43:15.199Z,6.5
2022-11-26T10:48:22.381Z,6.6
2022-11-26T10:53:29.564Z,6.9
2022-11-26T10:58:36.777Z,6.8
2022-11-26T11:03:44.020Z,6.8
2022-11-26T11:08:51.081Z,6.8
2022-11-26T11:13:57.841Z,7
2022-11-26T11:19:05.080Z,6.9
2022-11-26T11:24:12.308Z,7
2022-11-26T11:29:19.481Z,7.1
2022-11-26T11:34:26.503Z,7.1
2022-11-26T11:39:33.649Z,7.2
2022-11-26T11:44:40.831Z,7.2
2022-11-26T11:49:48.198Z,7.2
2022-11-26T11:54:55.470Z,7.1
2022-11-26T12:00:02.576Z,7.2
2022-11-26T12:05:09.696Z,7.2
2022-11-26T12:10:16.759Z,7.2
2022-11-26T12:15:24.155Z,7.2
2022-11-26T12:20:30.856Z,7.3
2022-11-26T12:25:38.095Z,7.3
2022-11-26T12:30:45.318Z,7.5
2022-11-26T12:35:52.469Z,7.5
2022-11-26T12:40:59.668Z,7.5
2022-11-26T12:46:06.928Z,7.5
2022-11-26T12:51:13.931Z,7.4
2022-11-26T12:56:21.239Z,7.4
2022-11-26T13:01:28.391Z,7.5
2022-11-26T13:06:35.370Z,7.4
2022-11-26T13:11:42.739Z,7.4
2022-11-26T13:16:49.771Z,7.4
2022-11-26T13:21:57.119Z,7.3
2022-11-26T13:27:04.345Z,7.4
2022-11-26T13:32:11.316Z,7.5
2022-11-26T13:37:18.237Z,7.5
2022-11-26T13:42:25.452Z,7.4
2022-11-26T13:47:32.559Z,7.3
2022-11-26T13:52:39.778Z,7.3
2022-11-26T13:57:46.844Z,7.1
2022-11-26T14:02:54.113Z,7.1
2022-11-26T14:08:01.331Z,7.1
2022-11-26T14:13:08.464Z,7
2022-11-26T14:18:15.750Z,6.9
2022-11-26T14:23:22.917Z,6.8
2022-11-26T14:28:30.034Z,6.8
2022-11-26T14:33:37.307Z,6.8
2022-11-26T14:38:44.310Z,6.7
2022-11-26T14:43:51.614Z,6.7
2022-11-26T14:48:58.662Z,6.7
2022-11-26T14:54:05.585Z,6.5
2022-11-26T14:59:12.809Z,6.2
2022-11-26T15:04:19.939Z,5.9
2022-11-26T15:09:27.165Z,5.6
2022-11-26T15:14:34.363Z,5.2
2022-11-26T15:19:41.560Z,5
2022-11-26T15:24:48.544Z,4.7
2022-11-26T15:29:55.874Z,4.5
2022-11-26T15:35:03.113Z,4.3
2022-11-26T15:40:10.323Z,4.3
2022-11-26T15:45:17.423Z,4.2
2022-11-26T16:21:07.628Z,4.6
2022-11-26T16:26:14.817Z,4.6
2022-11-26T16:31:21.745Z,4.6
2022-11-26T16:36:28.839Z,4.7
2022-11-26T16:41:36.016Z,4.7
2022-11-26T16:46:43.419Z,4.6
2022-11-26T16:51:50.100Z,4.6
2022-11-26T16:56:57.194Z,4.6
2022-11-26T17:02:04.335Z,4.6
2022-11-26T17:07:11.688Z,4.7
2022-11-26T17:12:18.914Z,4.8
2022-11-26T17:17:25.911Z,4.8
2022-11-26T17:22:33.268Z,5
2022-11-26T17:27:40.154Z,5
2022-11-26T17:32:47.262Z,5.1
2022-11-26T17:37:54.632Z,5.1
2022-11-26T17:43:01.056Z,5.4
2022-11-26T17:48:08.249Z,5.6
2022-11-26T17:53:15.536Z,5.7
2022-11-26T17:58:22.695Z,5.7
2022-11-26T18:03:29.885Z,5.6
2022-11-26T18:08:36.990Z,5.4
2022-11-26T18:13:44.203Z,5.2
2022-11-26T18:18:51.473Z,4.9
2022-11-26T18:23:58.549Z,4.9
2022-11-26T18:29:05.737Z,4.6
2022-11-26T18:34:12.932Z,4.3
2022-11-26T18:39:20.129Z,4.2
2022-11-26T18:44:27.450Z,4.1
2022-11-26T18:49:34.604Z,4
2022-11-26T18:54:41.894Z,4
2022-11-26T18:59:49.079Z,4.1
2022-11-26T19:04:56.107Z,4.1
2022-11-26T19:10:03.462Z,4.1
2022-11-26T19:15:10.528Z,4.1
2022-11-26T19:20:17.408Z,4
2022-11-26T19:25:24.503Z,4
2022-11-26T19:30:31.560Z,3.9
2022-11-26T19:35:38.751Z,3.7
2022-11-26T19:40:46.067Z,3.7
2022-11-26T19:45:53.116Z,3.6
2022-11-26T19:51:00.375Z,3.6
2022-11-26T19:56:07.564Z,3.6
2022-11-26T20:01:14.811Z,3.5
2022-11-26T20:06:22.047Z,3.5
2022-11-26T20:11:29.241Z,3.6
2022-11-26T20:16:36.367Z,3.6
2022-11-26T20:21:43.571Z,3.6
2022-11-26T20:26:50.203Z,3.6
2022-11-26T20:31:57.502Z,3.6
2022-11-26T20:37:04.713Z,3.6
2022-11-26T20:42:11.831Z,3.6
2022-11-26T20:47:19.043Z,3.7
2022-11-26T20:52:26.154Z,3.6
2022-11-26T20:57:33.321Z,3.6
2022-11-26T21:02:40.666Z,3.6
2022-11-26T21:07:47.784Z,3.6
2022-11-26T21:12:54.913Z,3.6
2022-11-26T21:18:02.107Z,3.6
2022-11-26T21:23:09.324Z,3.7
2022-11-26T21:28:16.450Z,3.7
2022-11-26T21:33:23.290Z,3.7
2022-11-26T21:38:30.514Z,3.6
2022-11-26T21:43:37.584Z,3.6
2022-11-26T21:48:44.806Z,3.5
2022-11-26T21:53:51.975Z,3.4
2022-11-26T21:58:59.170Z,3.4
2022-11-26T22:04:06.351Z,3.3
2022-11-26T22:09:13.559Z,3.2
2022-11-26T22:14:20.735Z,3
2022-11-26T22:19:27.894Z,2.9
2022-11-26T22:24:35.114Z,2.6
2022-11-26T22:29:42.297Z,2.4
2022-11-26T22:34:49.487Z,2.2
2022-11-26T22:39:56.256Z,2.1
2022-11-26T22:45:03.433Z,2
2022-11-26T22:50:10.680Z,1.8
2022-11-26T22:55:17.801Z,1.7
2022-11-26T23:00:24.982Z,1.4
2022-11-26T23:05:32.175Z,1.2
2022-11-26T23:10:39.365Z,1
2022-11-26T23:15:46.635Z,1
2022-11-26T23:20:53.756Z,1.1
2022-11-26T23:31:08.134Z,1.1
2022-11-26T23:36:15.325Z,0.9
2022-11-26T23:41:22.684Z,0.8
2022-11-26T23:46:29.318Z,0.7
2022-11-26T23:51:36.602Z,0.6
2022-11-26T23:56:43.713Z,0.6
